La Fayette, Ohio
Current Conditions -  °F | °C
As of 1:53 AM on Sunday 21 Dec 2014 (Local Time) from KAOH Reporting Station
Haze Haze  
Wind Chill: 31°   Ceiling: 2700
Heat Index: 31°   Visibility: 4mi
Dew Point: 25°   Wind: 0mph
Humidity: 79%   Direction: NA
Pressure: 30.27"   Gusts: NA
Location:  40.7587°N, 83.949°W
Report Text: KAOH 210653Z AUTO 00000KT 4SM HZ OVC027 M01/M04 A3027 RMK AO2 SLP261 T10061039
Loading
Personal Weather Stations






























Interactive Weather Map New forecast layout! Learn more

10-Day Weather Forecast

Advertisements
Track Severe Weather on mobile